Portada
METAR-TAF:

METAR-TAF

Aeroports :

Aeroport d'Oslo-Gardermoen

Oslo, Noruega

latitud: 60-12N, longitud: 011-05E, altitud: 208 m

Observació

L'informe es va fer fa 37 minuts, a les 02:50 UTC
Vent 4 kt del Nord-Est
Temperatura 12°C
Humitat 62%
Pressió 1029 hPa
Visibilitat 10 km o més
sense núvols per sota de 1500 mi sense presència de cumulonimbus.

METAR: ENGM 270250Z 05004KT CAVOK 12/05 Q1029

Hora: 05:27 (03:27 UTC)

Pronòstic

Pronòstic vàlid del 27 a les 00 UTC al 27 a les 24 UTC
Vent 5 kt del Nord-Est
Visibilitat 10 km o més
sense núvols per sota de 1500 mi sense presència de cumulonimbus.
Temporalment
l' 27 a les 12 UTC al 27 a les 18 UTC
Vent 10 kt del Est/Sud-Est

TAF: ENGM 2700/2724 05005KT CAVOK TEMPO 2712/2718 11010KT

Observacions i pronòstics meteorològics de més de 4000 aeroports (METAR i TAF).

Les estacions disponibles són els punts grocs i vermells al mapa.

Posi el ratolí al punt desitjat per veure el nom de l'estació.

Feu clic per veure les observacions i els pronòstics meteorològics.

Per canviar el mapa: feu clic els botons verds amb una creu de color negre per apropar; al botó verd amb un guió per allunyar la imatge; o en les fletxes verdes per a mapes adjacents.


METAR-TAF: